Time;durP1;ratioP1;P1;durP2;ratioP2;P2;SDS_P1;SDS_P2;PMS_P1;PMS_P2;Temp;Humidity;BMP_temperature;BMP_pressure;BME280_temperature;BME280_humidity;BME280_pressure;Samples;Min_cycle;Max_cycle;Signal;HPM_P1;HPM_P2
2021/10/24 00:01:50;;;;;;;16.85;8.70;;;28.80;88.70;;;;;;5103315;28;20024;-55
2021/10/24 00:04:17;;;;;;;14.30;8.23;;;28.80;88.60;;;;;;5103509;28;20016;-56
2021/10/24 00:06:44;;;;;;;14.95;7.28;;;28.80;88.50;;;;;;5103024;28;20028;-57
2021/10/24 00:09:10;;;;;;;12.23;7.22;;;28.80;88.40;;;;;;5104192;28;20016;-56
2021/10/24 00:11:38;;;;;;;11.10;7.22;;;28.80;88.20;;;;;;5104371;28;20031;-56
2021/10/24 00:14:06;;;;;;;12.85;6.60;;;28.70;88.20;;;;;;5103136;28;20024;-55
2021/10/24 00:16:33;;;;;;;13.95;6.60;;;28.70;88.00;;;;;;5104090;28;20035;-55
2021/10/24 00:19:00;;;;;;;13.40;6.70;;;28.70;88.10;;;;;;5104250;28;20026;-51
2021/10/24 00:21:27;;;;;;;12.05;7.30;;;28.70;88.10;;;;;;5104483;28;20027;-54
2021/10/24 00:23:54;;;;;;;11.95;6.70;;;28.70;88.10;;;;;;5104094;28;20070;-57
2021/10/24 00:26:21;;;;;;;9.93;6.47;;;28.70;88.10;;;;;;5103886;28;20020;-54
2021/10/24 00:28:48;;;;;;;9.70;6.55;;;28.70;87.90;;;;;;5104406;28;20012;-57
2021/10/24 00:31:14;;;;;;;10.93;6.60;;;28.60;87.80;;;;;;5104191;28;20223;-57
2021/10/24 00:33:41;;;;;;;14.55;6.43;;;28.60;87.60;;;;;;5104193;28;20016;-58
2021/10/24 00:36:08;;;;;;;10.73;6.28;;;28.60;87.50;;;;;;5103910;28;20027;-57
2021/10/24 00:38:34;;;;;;;10.40;6.38;;;28.60;87.50;;;;;;5103945;28;20042;-55
2021/10/24 00:41:01;;;;;;;12.80;7.20;;;28.60;87.50;;;;;;5103081;28;20076;-58
2021/10/24 00:43:31;;;;;;;12.73;6.57;;;28.60;87.50;;;;;;5104816;28;20312;-55
2021/10/24 00:45:57;;;;;;;11.43;6.57;;;28.60;87.40;;;;;;5103588;28;20058;-58
2021/10/24 00:48:26;;;;;;;11.30;6.18;;;28.60;87.40;;;;;;5104244;28;20097;-55
2021/10/24 00:50:54;;;;;;;13.90;6.72;;;28.50;87.30;;;;;;5103878;28;20212;-56
2021/10/24 00:53:20;;;;;;;10.95;6.40;;;28.50;87.20;;;;;;5104062;28;20075;-52
2021/10/24 00:55:47;;;;;;;13.90;8.07;;;28.50;87.20;;;;;;5103974;28;20077;-55
2021/10/24 00:58:18;;;;;;;11.55;8.55;;;28.50;87.20;;;;;;5104290;28;20079;-59
2021/10/24 01:00:45;;;;;;;17.17;11.40;;;28.50;87.10;;;;;;5104050;28;20050;-55
2021/10/24 01:03:15;;;;;;;18.98;14.13;;;28.50;87.20;;;;;;5104351;28;20080;-56
2021/10/24 01:05:43;;;;;;;24.85;14.98;;;28.50;87.40;;;;;;5103841;28;20243;-56
2021/10/24 01:08:09;;;;;;;31.00;19.80;;;28.50;87.20;;;;;;5104041;28;20352;-55
2021/10/24 01:10:37;;;;;;;32.80;22.75;;;28.50;87.20;;;;;;5103601;28;20057;-55
2021/10/24 01:13:04;;;;;;;33.53;22.98;;;28.50;87.10;;;;;;5103724;28;20024;-58
2021/10/24 01:15:31;;;;;;;34.97;23.27;;;28.50;87.20;;;;;;5103634;28;20024;-58
2021/10/24 01:17:58;;;;;;;30.70;21.13;;;28.40;87.10;;;;;;5103969;28;20069;-57
2021/10/24 01:20:27;;;;;;;29.38;19.75;;;28.40;87.20;;;;;;5103630;28;20123;-57
2021/10/24 01:22:54;;;;;;;33.25;23.08;;;28.40;87.20;;;;;;5103470;28;20028;-54
2021/10/24 01:25:22;;;;;;;38.08;23.92;;;28.40;87.10;;;;;;5103577;28;20223;-55
2021/10/24 01:27:49;;;;;;;35.42;21.65;;;28.40;87.20;;;;;;5104016;28;20079;-57
2021/10/24 01:30:17;;;;;;;28.35;16.85;;;28.40;87.30;;;;;;5103432;28;20093;-56
2021/10/24 01:32:44;;;;;;;22.65;16.05;;;28.40;87.20;;;;;;5103886;28;20024;-55
2021/10/24 01:35:11;;;;;;;22.83;14.45;;;28.40;87.10;;;;;;5103697;28;20019;-57
2021/10/24 01:37:44;;;;;;;21.45;13.27;;;28.40;87.00;;;;;;5102386;28;20013;-55
2021/10/24 01:40:16;;;;;;;17.70;12.25;;;28.40;86.60;;;;;;5106739;28;20016;-57
2021/10/24 01:42:55;;;;;;;21.00;10.35;;;28.40;86.40;;;;;;5107626;28;20065;-56
2021/10/24 01:45:23;;;;;;;17.27;10.82;;;28.40;86.10;;;;;;5107036;28;20048;-55
2021/10/24 01:47:51;;;;;;;13.15;9.05;;;28.30;85.90;;;;;;5106255;28;20058;-55
2021/10/24 01:50:18;;;;;;;14.93;8.52;;;28.30;85.60;;;;;;5107006;28;20018;-54
2021/10/24 01:52:47;;;;;;;14.05;8.00;;;28.30;85.40;;;;;;5107668;28;20320;-59
2021/10/24 01:55:15;;;;;;;10.45;6.95;;;28.30;85.30;;;;;;5106002;28;20217;-56
2021/10/24 01:57:44;;;;;;;12.02;7.80;;;28.30;85.10;;;;;;5107298;28;20308;-55
2021/10/24 02:00:12;;;;;;;10.23;6.93;;;28.30;85.00;;;;;;5106972;28;20052;-60
2021/10/24 02:02:39;;;;;;;14.15;6.40;;;28.30;85.00;;;;;;5107179;28;20031;-60
2021/10/24 02:05:06;;;;;;;11.80;6.68;;;28.30;84.90;;;;;;5105473;28;20186;-60
2021/10/24 02:07:33;;;;;;;9.35;6.53;;;28.30;84.90;;;;;;5107022;28;20020;-53
2021/10/24 02:10:00;;;;;;;9.95;6.25;;;28.30;84.90;;;;;;5106938;28;20300;-55
2021/10/24 02:12:26;;;;;;;8.38;6.05;;;28.30;84.80;;;;;;5106799;28;20095;-55
2021/10/24 02:14:53;;;;;;;11.23;6.95;;;28.20;84.70;;;;;;5106676;28;20023;-55
2021/10/24 02:17:20;;;;;;;11.63;6.97;;;28.20;84.60;;;;;;5106943;28;20024;-53
2021/10/24 02:19:47;;;;;;;14.00;7.00;;;28.20;84.60;;;;;;5106563;28;20085;-54
2021/10/24 02:22:13;;;;;;;10.90;6.82;;;28.20;84.70;;;;;;5105321;28;20032;-54
2021/10/24 02:24:41;;;;;;;12.13;6.55;;;28.20;84.60;;;;;;5106601;28;20316;-54
2021/10/24 02:27:09;;;;;;;10.40;6.07;;;28.20;84.50;;;;;;5106504;28;20028;-50
2021/10/24 02:29:36;;;;;;;10.60;6.72;;;28.20;84.40;;;;;;5106503;28;20242;-53
2021/10/24 02:32:04;;;;;;;9.93;6.07;;;28.20;84.10;;;;;;5106552;28;20040;-55
2021/10/24 02:34:31;;;;;;;9.60;6.00;;;28.10;83.80;;;;;;5106104;28;20020;-57
2021/10/24 02:36:58;;;;;;;8.57;6.03;;;28.20;84.00;;;;;;5105128;28;20330;-54
2021/10/24 02:39:25;;;;;;;9.25;6.00;;;28.10;83.80;;;;;;5105178;28;20028;-53
2021/10/24 02:41:52;;;;;;;10.45;5.78;;;28.10;83.80;;;;;;5106071;28;20028;-57
2021/10/24 02:44:19;;;;;;;12.70;6.18;;;28.10;83.80;;;;;;5106026;28;20250;-55
2021/10/24 02:46:45;;;;;;;10.98;5.72;;;28.10;83.80;;;;;;5106070;28;20059;-55
2021/10/24 02:49:13;;;;;;;9.25;5.68;;;28.10;83.80;;;;;;5105814;28;20023;-55
2021/10/24 02:51:40;;;;;;;10.80;5.65;;;28.10;83.80;;;;;;5106265;28;20208;-55
2021/10/24 02:54:07;;;;;;;13.70;6.05;;;28.10;83.70;;;;;;5106316;28;20022;-55
2021/10/24 02:56:34;;;;;;;9.02;5.50;;;28.10;83.70;;;;;;5106415;28;20051;-56
2021/10/24 02:59:00;;;;;;;10.20;6.05;;;28.10;83.60;;;;;;5104640;28;20215;-56
2021/10/24 03:01:27;;;;;;;12.98;5.65;;;28.00;83.60;;;;;;5105675;28;20053;-55
2021/10/24 03:03:54;;;;;;;7.07;4.53;;;28.00;83.60;;;;;;5105548;28;20051;-55
2021/10/24 03:06:22;;;;;;;10.75;6.00;;;28.00;83.80;;;;;;5104306;28;20304;-57
2021/10/24 03:08:48;;;;;;;8.65;5.60;;;28.00;83.70;;;;;;5105492;28;20008;-54
2021/10/24 03:11:15;;;;;;;9.63;5.88;;;28.00;83.70;;;;;;5104229;28;20042;-50
2021/10/24 03:13:42;;;;;;;8.90;5.45;;;28.00;83.70;;;;;;5104331;28;20368;-55
2021/10/24 03:16:09;;;;;;;9.98;5.53;;;28.00;83.70;;;;;;5105300;28;20024;-53
2021/10/24 03:18:35;;;;;;;8.60;5.78;;;28.00;83.70;;;;;;5105462;28;20020;-55
2021/10/24 03:21:02;;;;;;;10.30;5.75;;;28.00;83.60;;;;;;5105174;28;20020;-53
2021/10/24 03:23:29;;;;;;;8.93;6.22;;;28.00;83.40;;;;;;5106005;28;20028;-56
2021/10/24 03:25:56;;;;;;;8.75;5.63;;;27.90;83.50;;;;;;5105003;28;20137;-52
2021/10/24 03:28:23;;;;;;;9.25;5.63;;;27.90;83.50;;;;;;5105688;28;20030;-53
2021/10/24 03:30:49;;;;;;;10.75;5.70;;;27.90;83.50;;;;;;5105180;28;20016;-55
2021/10/24 03:33:19;;;;;;;11.50;5.50;;;27.90;83.40;;;;;;5105550;28;20059;-55
2021/10/24 03:35:45;;;;;;;10.30;5.38;;;27.90;83.40;;;;;;5105182;28;20023;-53
2021/10/24 03:38:12;;;;;;;13.88;6.70;;;27.90;83.30;;;;;;5105574;28;20028;-53
2021/10/24 03:40:39;;;;;;;13.75;6.00;;;27.90;83.30;;;;;;5105168;28;20023;-54
2021/10/24 03:43:06;;;;;;;10.93;5.80;;;27.90;83.20;;;;;;5104234;28;20033;-55
2021/10/24 03:45:33;;;;;;;14.43;5.68;;;27.80;83.10;;;;;;5104692;28;20051;-62
2021/10/24 03:47:59;;;;;;;11.25;5.78;;;27.90;83.20;;;;;;5105179;28;20173;-56
2021/10/24 03:50:26;;;;;;;9.27;5.82;;;27.90;83.40;;;;;;5104847;28;20032;-52
2021/10/24 03:52:52;;;;;;;10.05;5.63;;;27.80;83.10;;;;;;5103575;28;20028;-53
2021/10/24 03:55:19;;;;;;;8.98;5.57;;;27.80;83.10;;;;;;5105291;28;20043;-53
2021/10/24 03:57:46;;;;;;;9.38;5.47;;;27.80;83.00;;;;;;5104974;28;20032;-53
2021/10/24 04:00:13;;;;;;;10.07;5.72;;;27.80;82.90;;;;;;5104734;28;20091;-55
2021/10/24 04:03:05;;;;;;;8.68;5.85;;;27.80;82.90;;;;;;5104345;28;20091;-53
2021/10/24 04:05:32;;;;;;;13.47;6.10;;;27.80;82.90;;;;;;5104810;28;20083;-55
2021/10/24 04:07:59;;;;;;;7.95;5.30;;;27.80;82.90;;;;;;5104928;28;20024;-54
2021/10/24 04:10:27;;;;;;;8.85;5.72;;;27.80;82.90;;;;;;5103346;28;20225;-53
2021/10/24 04:12:55;;;;;;;8.98;6.00;;;27.80;83.00;;;;;;5104859;28;20030;-56
2021/10/24 04:15:23;;;;;;;8.93;5.28;;;27.70;82.90;;;;;;5104434;28;20053;-57
2021/10/24 04:17:50;;;;;;;11.10;5.88;;;27.80;83.10;;;;;;5104863;28;20032;-57
2021/10/24 04:20:19;;;;;;;8.93;5.85;;;27.70;83.10;;;;;;5104501;28;20295;-56
2021/10/24 04:22:47;;;;;;;13.13;6.18;;;27.80;83.10;;;;;;5104612;28;20090;-56
2021/10/24 04:25:14;;;;;;;12.07;6.30;;;27.80;83.10;;;;;;5103199;28;20028;-55
2021/10/24 04:27:42;;;;;;;12.48;6.53;;;27.80;83.10;;;;;;5104586;28;20024;-58
2021/10/24 04:30:10;;;;;;;11.88;6.32;;;27.80;83.10;;;;;;5104127;28;20012;-54
2021/10/24 04:32:39;;;;;;;11.38;6.43;;;27.80;83.30;;;;;;5104512;28;20044;-56
2021/10/24 04:35:07;;;;;;;11.88;6.13;;;27.80;83.40;;;;;;5104273;28;20203;-55
2021/10/24 04:37:33;;;;;;;8.70;6.03;;;27.80;83.60;;;;;;5104253;28;20024;-55
2021/10/24 04:40:00;;;;;;;10.88;6.13;;;27.80;83.60;;;;;;5104281;28;20016;-55
2021/10/24 04:42:26;;;;;;;9.35;6.10;;;27.70;83.60;;;;;;5104322;28;20027;-55
2021/10/24 04:44:53;;;;;;;13.50;6.03;;;27.70;83.50;;;;;;5103793;28;20038;-57
2021/10/24 04:47:20;;;;;;;11.20;5.97;;;27.70;83.50;;;;;;5104149;28;20031;-53
2021/10/24 04:49:46;;;;;;;11.70;6.07;;;27.80;83.60;;;;;;5102914;28;20016;-51
2021/10/24 04:52:13;;;;;;;8.90;6.20;;;27.70;83.60;;;;;;5104047;28;20070;-54
2021/10/24 04:54:39;;;;;;;8.75;6.10;;;27.70;83.60;;;;;;5103975;28;20032;-53
2021/10/24 04:57:06;;;;;;;10.73;6.30;;;27.80;84.10;;;;;;5104238;28;20238;-57
2021/10/24 04:59:33;;;;;;;10.65;6.57;;;27.70;83.50;;;;;;5103954;28;20057;-57
2021/10/24 05:02:00;;;;;;;11.68;6.65;;;27.70;83.40;;;;;;5104056;28;20059;-52
2021/10/24 05:04:27;;;;;;;9.90;6.53;;;27.70;83.50;;;;;;5103913;28;20024;-54
2021/10/24 05:06:53;;;;;;;11.85;7.53;;;27.70;83.50;;;;;;5103906;28;20035;-55
2021/10/24 05:09:20;;;;;;;10.05;7.35;;;27.70;83.30;;;;;;5104085;28;20200;-54
2021/10/24 05:11:47;;;;;;;8.60;6.97;;;27.70;83.40;;;;;;5103938;28;20020;-58
2021/10/24 05:14:14;;;;;;;11.18;7.13;;;27.70;83.30;;;;;;5107318;28;20023;-57
2021/10/24 05:16:40;;;;;;;10.13;6.35;;;27.70;83.30;;;;;;5107760;28;20036;-57
2021/10/24 05:19:07;;;;;;;12.57;7.03;;;27.70;83.20;;;;;;5108052;28;20024;-56
2021/10/24 05:21:34;;;;;;;11.18;7.00;;;27.70;83.30;;;;;;5107783;28;20032;-57
2021/10/24 05:24:02;;;;;;;12.30;7.40;;;27.70;83.10;;;;;;5107572;28;20020;-57
2021/10/24 05:26:29;;;;;;;12.18;7.40;;;27.70;83.10;;;;;;5107517;28;20036;-58
2021/10/24 05:28:56;;;;;;;13.43;7.47;;;27.70;82.90;;;;;;5107571;28;20020;-56
2021/10/24 05:31:22;;;;;;;11.23;7.18;;;27.70;82.90;;;;;;5107376;28;20020;-57
2021/10/24 05:33:49;;;;;;;11.32;7.38;;;27.70;82.80;;;;;;5107695;28;20024;-55
2021/10/24 05:36:15;;;;;;;12.98;6.80;;;27.70;82.90;;;;;;5107271;28;20023;-55
2021/10/24 05:38:42;;;;;;;9.82;6.93;;;27.70;82.90;;;;;;5107257;28;20047;-57
2021/10/24 05:41:09;;;;;;;11.90;7.53;;;27.70;82.90;;;;;;5107270;28;20047;-58
2021/10/24 05:43:35;;;;;;;11.77;7.45;;;27.70;82.80;;;;;;5107326;28;20087;-57
2021/10/24 05:46:02;;;;;;;13.20;7.55;;;27.70;82.90;;;;;;5106953;28;20382;-55
2021/10/24 05:48:29;;;;;;;14.43;8.95;;;27.70;82.80;;;;;;5107678;28;20034;-55
2021/10/24 05:50:55;;;;;;;13.48;9.93;;;27.70;82.90;;;;;;5107159;28;20079;-57
2021/10/24 05:53:22;;;;;;;15.45;9.93;;;27.70;82.90;;;;;;5107467;28;20020;-57
2021/10/24 05:55:49;;;;;;;14.80;11.23;;;27.70;83.00;;;;;;5107157;28;20246;-61
2021/10/24 05:58:16;;;;;;;17.23;12.02;;;27.70;82.90;;;;;;5107448;28;20032;-58
2021/10/24 06:00:42;;;;;;;18.70;13.65;;;27.60;82.90;;;;;;5106807;28;20035;-60
2021/10/24 06:03:09;;;;;;;18.63;12.32;;;27.60;82.90;;;;;;5107250;28;20032;-56
2021/10/24 06:05:36;;;;;;;14.23;11.15;;;27.60;83.10;;;;;;5106788;28;20088;-55
2021/10/24 06:08:04;;;;;;;19.17;12.52;;;27.60;83.10;;;;;;5107032;28;20027;-53
2021/10/24 06:10:37;;;;;;;16.27;12.60;;;27.60;83.00;;;;;;5106795;28;20271;-55
2021/10/24 06:13:06;;;;;;;22.42;15.25;;;27.60;82.80;;;;;;5107150;28;20024;-56
2021/10/24 06:15:33;;;;;;;22.10;15.15;;;27.60;82.80;;;;;;5106571;28;20050;-56
2021/10/24 06:18:00;;;;;;;18.40;13.20;;;27.60;82.80;;;;;;5107032;28;20020;-58
2021/10/24 06:20:26;;;;;;;23.35;11.20;;;27.60;82.90;;;;;;5106603;28;20016;-59
2021/10/24 06:22:54;;;;;;;20.20;11.38;;;27.60;83.10;;;;;;5106370;28;20225;-57
2021/10/24 06:25:20;;;;;;;14.13;10.65;;;27.60;83.30;;;;;;5105836;28;20024;-54
2021/10/24 06:27:47;;;;;;;16.90;9.90;;;27.60;83.30;;;;;;5106863;28;20066;-57
2021/10/24 06:30:17;;;;;;;16.15;10.60;;;27.60;83.40;;;;;;5106268;28;20020;-55
2021/10/24 06:32:44;;;;;;;20.48;12.25;;;27.50;83.50;;;;;;5106710;28;20035;-57
2021/10/24 06:35:11;;;;;;;17.58;13.73;;;27.50;83.40;;;;;;5106336;28;20011;-57
2021/10/24 06:37:43;;;;;;;19.30;12.98;;;27.60;83.60;;;;;;5106483;28;20087;-59
2021/10/24 06:40:12;;;;;;;15.93;11.00;;;27.50;83.50;;;;;;5106287;28;20062;-57
2021/10/24 06:42:39;;;;;;;16.77;10.38;;;27.50;83.60;;;;;;5106540;28;20081;-54
2021/10/24 06:45:07;;;;;;;15.57;10.55;;;27.50;83.60;;;;;;5105814;28;20267;-56
2021/10/24 06:47:34;;;;;;;15.95;11.77;;;27.50;83.60;;;;;;5106392;28;20020;-55
2021/10/24 06:50:02;;;;;;;18.45;13.88;;;27.50;83.60;;;;;;5106073;28;20012;-57
2021/10/24 06:52:29;;;;;;;25.83;16.63;;;27.50;83.50;;;;;;5106095;28;20296;-56
2021/10/24 06:54:56;;;;;;;31.95;20.92;;;27.50;83.70;;;;;;5105974;28;20028;-52
2021/10/24 06:57:22;;;;;;;28.05;21.10;;;27.50;83.90;;;;;;5106142;28;20056;-54
2021/10/24 06:59:49;;;;;;;28.88;21.67;;;27.50;83.90;;;;;;5105711;28;20320;-59
2021/10/24 07:02:20;;;;;;;27.50;19.33;;;27.50;83.90;;;;;;5105974;28;20023;-58
2021/10/24 07:04:46;;;;;;;24.77;17.10;;;27.50;83.90;;;;;;5105771;28;20339;-55
2021/10/24 07:07:13;;;;;;;22.17;15.50;;;27.50;83.90;;;;;;5105424;28;20036;-52
2021/10/24 07:09:40;;;;;;;22.80;15.18;;;27.40;84.20;;;;;;5105655;28;20091;-56
2021/10/24 07:12:06;;;;;;;17.88;12.23;;;27.40;84.40;;;;;;5105792;28;20078;-55
2021/10/24 07:14:33;;;;;;;15.30;10.88;;;27.40;84.30;;;;;;5105437;28;20308;-55
2021/10/24 07:17:00;;;;;;;18.10;9.52;;;27.40;84.50;;;;;;5105677;28;20133;-55
2021/10/24 07:19:26;;;;;;;14.30;9.43;;;27.40;84.40;;;;;;5105453;28;20023;-50
2021/10/24 07:21:53;;;;;;;11.85;8.40;;;27.40;84.20;;;;;;5105429;28;20024;-54
2021/10/24 07:24:19;;;;;;;13.20;8.98;;;27.40;84.10;;;;;;5105417;28;20197;-54
2021/10/24 07:26:46;;;;;;;14.55;8.93;;;27.40;84.20;;;;;;5105364;28;20020;-55
2021/10/24 07:29:12;;;;;;;10.60;8.45;;;27.40;84.10;;;;;;5105167;28;20020;-50
2021/10/24 07:31:39;;;;;;;12.60;9.70;;;27.30;84.00;;;;;;5105530;28;20231;-57
2021/10/24 07:34:06;;;;;;;15.00;9.73;;;27.40;84.00;;;;;;5105162;28;20024;-54
2021/10/24 07:36:32;;;;;;;14.40;10.32;;;27.40;83.90;;;;;;5104030;28;20264;-55
2021/10/24 07:38:59;;;;;;;18.38;10.75;;;27.30;84.00;;;;;;5105049;28;20050;-54
2021/10/24 07:41:26;;;;;;;15.60;10.80;;;27.40;84.10;;;;;;5105048;28;20054;-54
2021/10/24 07:43:53;;;;;;;14.30;10.05;;;27.40;84.10;;;;;;5104882;28;20034;-56
2021/10/24 07:46:20;;;;;;;14.10;8.77;;;27.30;84.00;;;;;;5104732;28;20082;-57
2021/10/24 07:48:47;;;;;;;14.95;8.93;;;27.40;84.10;;;;;;5104885;28;20016;-51
2021/10/24 07:51:13;;;;;;;13.07;7.78;;;27.30;84.30;;;;;;5104749;28;20020;-53
2021/10/24 07:53:40;;;;;;;14.13;8.32;;;27.30;84.30;;;;;;5104821;28;20216;-53
2021/10/24 07:56:06;;;;;;;11.73;7.70;;;27.30;84.30;;;;;;5104840;28;20020;-53
2021/10/24 07:58:33;;;;;;;13.80;8.55;;;27.30;84.50;;;;;;5104604;28;20031;-55
2021/10/24 08:01:01;;;;;;;15.20;8.82;;;27.30;84.60;;;;;;5104661;28;20057;-55
2021/10/24 08:03:27;;;;;;;11.32;7.60;;;27.30;84.70;;;;;;5105106;28;20024;-54
2021/10/24 08:05:54;;;;;;;13.32;7.38;;;27.30;84.70;;;;;;5104697;28;20059;-55
2021/10/24 08:08:20;;;;;;;13.60;7.20;;;27.30;84.70;;;;;;5104491;28;20027;-54
2021/10/24 08:10:47;;;;;;;15.50;7.90;;;27.20;84.70;;;;;;5104534;28;20020;-52
2021/10/24 08:13:14;;;;;;;14.05;9.55;;;27.30;84.70;;;;;;5104297;28;20091;-56
2021/10/24 08:15:41;;;;;;;17.95;10.88;;;27.20;84.80;;;;;;5104572;28;20115;-55
2021/10/24 08:18:08;;;;;;;21.58;12.77;;;27.20;84.80;;;;;;5104871;28;20028;-56
2021/10/24 08:20:36;;;;;;;19.67;15.05;;;27.20;84.90;;;;;;5104339;28;20079;-53
2021/10/24 08:23:03;;;;;;;23.42;15.52;;;27.20;84.90;;;;;;5104726;28;20032;-54
2021/10/24 08:25:30;;;;;;;20.58;13.68;;;27.20;85.00;;;;;;5104385;28;20028;-54
2021/10/24 08:27:59;;;;;;;20.45;12.30;;;27.20;84.90;;;;;;5104462;28;20084;-54
2021/10/24 08:30:26;;;;;;;15.43;10.27;;;27.20;85.00;;;;;;5104512;28;20022;-55
2021/10/24 08:32:53;;;;;;;14.07;9.57;;;27.20;85.00;;;;;;5104647;28;20024;-54
2021/10/24 08:35:19;;;;;;;16.40;9.60;;;27.20;85.00;;;;;;5104005;28;20023;-56
2021/10/24 08:37:48;;;;;;;13.85;8.60;;;27.20;85.10;;;;;;5104443;28;20031;-54
2021/10/24 08:40:15;;;;;;;12.75;8.13;;;27.20;85.20;;;;;;5104424;28;20020;-51
2021/10/24 08:42:43;;;;;;;12.20;7.82;;;27.10;85.30;;;;;;5104384;28;20031;-55
2021/10/24 08:45:13;;;;;;;12.25;7.15;;;27.10;85.30;;;;;;5103850;28;20047;-53
2021/10/24 08:47:42;;;;;;;12.30;7.55;;;27.10;85.40;;;;;;5104064;28;20028;-52
2021/10/24 08:50:10;;;;;;;13.32;7.00;;;27.10;85.50;;;;;;5104173;28;20016;-52
2021/10/24 08:52:39;;;;;;;11.82;7.10;;;27.10;85.30;;;;;;5104037;28;20060;-54
2021/10/24 08:55:09;;;;;;;14.48;7.03;;;27.10;85.40;;;;;;5104076;28;20061;-55
2021/10/24 08:57:37;;;;;;;11.10;6.40;;;27.10;85.50;;;;;;5104125;28;20020;-55
2021/10/24 09:00:06;;;;;;;10.57;6.72;;;27.10;85.50;;;;;;5103965;28;20027;-54
2021/10/24 09:03:00;;;;;;;12.68;6.53;;;27.00;85.60;;;;;;5104225;28;20054;-53
2021/10/24 09:05:36;;;;;;;9.77;6.60;;;27.00;85.80;;;;;;5102313;28;20020;-53
2021/10/24 09:08:11;;;;;;;15.70;8.85;;;27.00;85.90;;;;;;5104157;28;20020;-55
2021/10/24 09:10:41;;;;;;;19.73;12.07;;;27.00;85.80;;;;;;5103831;28;20012;-51
2021/10/24 09:13:11;;;;;;;19.35;12.52;;;27.00;86.20;;;;;;5104287;28;20047;-53
2021/10/24 09:15:49;;;;;;;16.73;12.10;;;27.00;85.80;;;;;;5102625;28;20048;-54
2021/10/24 09:18:17;;;;;;;21.45;14.35;;;27.00;86.10;;;;;;5104276;28;20035;-54
2021/10/24 09:20:44;;;;;;;24.90;17.10;;;27.00;86.20;;;;;;5103630;28;20020;-54
2021/10/24 09:23:14;;;;;;;20.27;14.02;;;27.00;86.20;;;;;;5104140;28;20062;-53
2021/10/24 09:25:53;;;;;;;20.60;12.90;;;26.90;86.00;;;;;;5103941;28;20322;-54
2021/10/24 09:28:22;;;;;;;17.65;11.05;;;26.90;86.10;;;;;;5104120;28;20039;-53
2021/10/24 09:31:04;;;;;;;16.70;10.18;;;26.90;86.00;;;;;;5103659;28;20092;-53
2021/10/24 09:33:46;;;;;;;14.60;9.65;;;26.90;86.20;;;;;;5104018;28;20350;-54
2021/10/24 09:36:13;;;;;;;15.63;8.77;;;26.90;86.40;;;;;;5103491;28;20039;-53
2021/10/24 09:38:42;;;;;;;15.98;8.05;;;26.90;86.10;;;;;;5103465;28;20531;-55
2021/10/24 09:41:09;;;;;;;14.05;7.88;;;26.90;86.30;;;;;;5103490;28;20046;-55
2021/10/24 09:43:36;;;;;;;12.05;8.10;;;26.90;86.20;;;;;;5103531;28;20024;-54
2021/10/24 09:46:03;;;;;;;14.60;7.22;;;26.90;86.30;;;;;;5103291;28;20047;-50
2021/10/24 09:48:35;;;;;;;12.15;7.47;;;26.90;86.20;;;;;;5103977;28;20031;-50
2021/10/24 09:51:17;;;;;;;11.38;6.90;;;26.90;85.90;;;;;;5103441;28;20052;-51
2021/10/24 09:53:46;;;;;;;10.73;7.28;;;26.90;85.70;;;;;;5103470;28;20032;-51
2021/10/24 09:56:18;;;;;;;12.10;6.68;;;26.90;85.50;;;;;;5103609;28;20051;-51
2021/10/24 09:58:48;;;;;;;15.77;6.40;;;26.90;85.40;;;;;;5103347;28;20386;-55
2021/10/24 10:01:17;;;;;;;9.27;6.80;;;26.90;85.40;;;;;;5106471;28;20066;-55
2021/10/24 10:03:49;;;;;;;13.40;8.43;;;26.90;85.50;;;;;;5106939;28;20028;-53
2021/10/24 10:06:20;;;;;;;13.05;8.38;;;26.90;85.40;;;;;;5106812;28;20118;-51
2021/10/24 10:08:47;;;;;;;15.10;11.27;;;26.90;85.40;;;;;;5106872;28;20083;-51
2021/10/24 10:11:34;;;;;;;20.20;13.43;;;26.90;85.40;;;;;;5106597;28;20020;-51
2021/10/24 10:14:15;;;;;;;17.65;12.13;;;26.90;85.40;;;;;;5106940;28;20023;-53
2021/10/24 10:16:44;;;;;;;21.73;12.13;;;26.90;85.30;;;;;;5106778;28;20036;-54
2021/10/24 10:19:12;;;;;;;19.30;9.93;;;26.90;85.50;;;;;;5105604;28;20040;-54
2021/10/24 10:21:49;;;;;;;16.27;9.13;;;26.80;85.40;;;;;;5106598;28;20099;-56
2021/10/24 10:24:34;;;;;;;13.68;10.60;;;26.80;85.50;;;;;;5106467;28;20185;-54
2021/10/24 10:27:20;;;;;;;19.63;11.52;;;26.90;85.60;;;;;;5106354;28;20032;-52
2021/10/24 10:29:53;;;;;;;18.52;11.45;;;26.90;86.00;;;;;;5106393;28;20012;-55
2021/10/24 10:32:41;;;;;;;15.52;11.23;;;26.80;85.80;;;;;;5106397;28;20192;-54
2021/10/24 10:35:14;;;;;;;16.75;10.43;;;26.80;85.80;;;;;;5105276;28;20039;-55
2021/10/24 10:37:58;;;;;;;;;;;26.90;85.90;;;;;;5106804;28;20049;-56
2021/10/24 10:40:35;;;;;;;12.93;8.85;;;26.90;85.90;;;;;;5106249;28;20100;-54
2021/10/24 10:43:17;;;;;;;12.65;8.50;;;26.90;85.90;;;;;;5106590;28;20127;-56
2021/10/24 10:45:43;;;;;;;;;;;26.90;85.80;;;;;;5105206;28;20266;-55
2021/10/24 10:48:36;;;;;;;14.32;7.75;;;26.80;85.60;;;;;;5104764;28;19931;-55
2021/10/24 10:51:21;;;;;;;13.00;7.60;;;26.80;85.80;;;;;;5104307;28;20083;-56
2021/10/24 10:53:47;;;;;;;10.70;7.43;;;26.90;86.10;;;;;;5104496;28;20096;-56
2021/10/24 10:56:16;;;;;;;16.45;8.27;;;26.90;86.20;;;;;;5104106;28;20016;-56
2021/10/24 10:58:44;;;;;;;10.50;6.90;;;26.80;86.10;;;;;;5104014;28;20024;-57
2021/10/24 11:01:19;;;;;;;12.63;6.80;;;26.90;86.00;;;;;;5104049;28;20020;-55
2021/10/24 11:03:49;;;;;;;11.27;6.93;;;26.90;85.90;;;;;;5105615;28;20015;-53
2021/10/24 11:06:25;;;;;;;11.25;6.78;;;26.90;85.80;;;;;;5105881;28;20043;-55
2021/10/24 11:08:56;;;;;;;11.63;6.70;;;26.90;85.80;;;;;;5105724;28;20016;-55
2021/10/24 11:11:43;;;;;;;11.60;6.75;;;26.90;85.60;;;;;;5105408;28;20017;-54
2021/10/24 11:14:16;;;;;;;10.63;6.70;;;26.90;85.30;;;;;;5105584;28;20016;-56
2021/10/24 11:16:47;;;;;;;13.05;6.50;;;26.90;85.10;;;;;;5105636;28;20031;-55
2021/10/24 11:19:26;;;;;;;11.95;6.82;;;26.90;85.00;;;;;;5105543;28;20208;-56
2021/10/24 11:22:02;;;;;;;13.27;7.00;;;26.90;84.80;;;;;;5105221;28;20058;-56
2021/10/24 11:24:48;;;;;;;14.13;6.97;;;27.00;85.00;;;;;;5105381;28;20311;-52
2021/10/24 11:27:18;;;;;;;9.07;6.30;;;27.00;84.80;;;;;;5105349;28;20024;-56
2021/10/24 11:30:00;;;;;;;13.77;6.57;;;27.00;84.70;;;;;;5105376;28;20073;-59
2021/10/24 11:32:35;;;;;;;13.60;7.43;;;27.00;84.70;;;;;;5105422;28;20091;-56
2021/10/24 11:35:03;;;;;;;8.95;6.57;;;27.00;84.90;;;;;;5105210;28;20220;-54
2021/10/24 11:37:47;;;;;;;10.85;6.57;;;27.10;84.90;;;;;;5105166;28;20028;-53
2021/10/24 11:40:17;;;;;;;9.95;7.10;;;27.00;84.70;;;;;;5105081;28;20035;-55
2021/10/24 11:43:13;;;;;;;10.05;6.30;;;27.10;84.70;;;;;;5105238;28;20092;-55
2021/10/24 11:45:41;;;;;;;11.60;6.68;;;27.10;84.80;;;;;;5104724;28;20055;-53
2021/10/24 11:48:13;;;;;;;12.93;7.30;;;27.10;84.80;;;;;;5105175;28;20047;-55
2021/10/24 11:50:55;;;;;;;10.48;6.38;;;27.00;85.10;;;;;;5104906;28;20020;-56
2021/10/24 11:53:42;;;;;;;17.65;7.50;;;27.10;84.70;;;;;;5105139;28;20016;-53
2021/10/24 11:56:09;;;;;;;17.30;8.20;;;27.10;84.80;;;;;;5104654;28;20024;-55
2021/10/24 11:58:53;;;;;;;19.95;8.15;;;27.10;84.90;;;;;;5104639;28;20044;-54
2021/10/24 12:01:21;;;;;;;11.57;7.80;;;27.10;84.90;;;;;;5104630;28;20090;-57
2021/10/24 12:04:03;;;;;;;13.82;8.50;;;27.20;85.10;;;;;;5104644;28;20047;-56
2021/10/24 12:07:04;;;;;;;13.77;8.40;;;27.20;85.10;;;;;;5104490;28;20028;-55
2021/10/24 12:09:39;;;;;;;12.93;8.57;;;27.20;85.10;;;;;;5104537;28;20061;-54
2021/10/24 12:12:23;;;;;;;14.77;9.15;;;27.20;85.00;;;;;;5104738;28;20095;-55
2021/10/24 12:14:55;;;;;;;13.95;8.40;;;27.20;85.00;;;;;;5104611;28;20075;-55
2021/10/24 12:17:36;;;;;;;14.75;8.88;;;27.20;85.10;;;;;;5104791;28;20028;-55
2021/10/24 12:20:20;;;;;;;11.15;8.70;;;27.20;85.20;;;;;;5104435;28;20116;-54
2021/10/24 12:22:51;;;;;;;9.75;7.80;;;27.20;85.20;;;;;;5103910;28;20024;-53
2021/10/24 12:25:34;;;;;;;16.25;8.07;;;27.30;85.30;;;;;;5104109;28;20086;-54
2021/10/24 12:28:26;;;;;;;12.43;8.15;;;27.30;85.30;;;;;;5104453;28;20308;-54
2021/10/24 12:31:01;;;;;;;9.73;7.78;;;27.30;85.50;;;;;;5104238;28;20020;-55
2021/10/24 12:33:32;;;;;;;11.93;7.80;;;27.30;85.20;;;;;;5104439;28;20137;-54
2021/10/24 12:36:00;;;;;;;13.50;7.65;;;27.40;85.30;;;;;;5102988;28;20027;-56
2021/10/24 12:38:53;;;;;;;11.25;7.68;;;27.40;85.30;;;;;;5104275;28;20342;-57
2021/10/24 12:41:31;;;;;;;11.32;7.88;;;27.40;85.30;;;;;;5103917;28;20028;-54
2021/10/24 12:43:58;;;;;;;12.27;8.13;;;27.50;85.30;;;;;;5104061;28;20020;-56
2021/10/24 12:46:33;;;;;;;13.85;8.18;;;27.50;85.50;;;;;;5103780;28;20236;-55
2021/10/24 12:49:10;;;;;;;9.90;7.88;;;27.50;85.50;;;;;;5103751;28;20081;-55